createdAt,value
2023-04-15T00:02:04.877Z,40.30
2023-04-15T00:04:35.348Z,40.40
2023-04-15T00:07:05.739Z,40.40
2023-04-15T00:09:36.110Z,40.40
2023-04-15T00:12:06.582Z,40.50
2023-04-15T00:14:39.714Z,40.40
2023-04-15T00:17:10.598Z,40.40
2023-04-15T00:19:40.004Z,40.50
2023-04-15T00:22:09.576Z,40.50
2023-04-15T00:24:38.340Z,40.50
2023-04-15T00:27:08.770Z,40.50
2023-04-15T00:29:39.171Z,40.50
2023-04-15T00:32:09.000Z,40.50
2023-04-15T00:34:40.991Z,40.60
2023-04-15T00:37:10.403Z,40.50
2023-04-15T00:39:38.558Z,40.60
2023-04-15T00:42:06.781Z,40.60
2023-04-15T00:44:36.158Z,40.60
2023-04-15T00:47:06.091Z,40.60
2023-04-15T00:49:36.703Z,40.60
2023-04-15T00:52:06.900Z,40.60
2023-04-15T00:54:34.680Z,40.60
2023-04-15T00:57:03.237Z,40.60
2023-04-15T00:59:31.977Z,40.60
2023-04-15T01:02:01.986Z,40.60
2023-04-15T01:04:32.467Z,40.70
2023-04-15T01:07:02.451Z,40.70
2023-04-15T01:09:32.768Z,40.60
2023-04-15T01:12:02.311Z,40.70
2023-04-15T01:14:34.712Z,40.80
2023-04-15T01:17:04.662Z,40.70
2023-04-15T01:19:34.206Z,40.80
2023-04-15T01:22:04.152Z,40.80
2023-04-15T01:24:34.079Z,40.80
2023-04-15T01:27:03.974Z,40.70
2023-04-15T01:29:33.619Z,40.70
2023-04-15T01:32:02.302Z,40.80
2023-04-15T01:34:35.079Z,40.70
2023-04-15T01:37:05.648Z,40.80
2023-04-15T01:39:36.001Z,40.70
2023-04-15T01:42:06.279Z,40.80
2023-04-15T01:44:36.176Z,40.80
2023-04-15T01:47:04.656Z,40.80
2023-04-15T01:49:34.000Z,40.80
2023-04-15T01:52:03.468Z,40.90
2023-04-15T01:54:32.463Z,40.80
2023-04-15T01:57:02.792Z,40.80
2023-04-15T01:59:32.707Z,40.90
2023-04-15T02:02:02.617Z,40.80
2023-04-15T02:04:32.555Z,40.80
2023-04-15T02:07:02.426Z,40.90
2023-04-15T02:09:32.645Z,40.90
2023-04-15T02:12:02.485Z,40.90
2023-04-15T02:14:32.420Z,40.90
2023-04-15T02:17:02.192Z,40.90
2023-04-15T02:19:32.554Z,40.90
2023-04-15T02:22:04.230Z,40.90
2023-04-15T02:24:32.484Z,40.90
2023-04-15T02:27:04.640Z,40.90
2023-04-15T02:29:34.507Z,40.90
2023-04-15T02:32:04.470Z,41.00
2023-04-15T02:34:33.481Z,41.00
2023-04-15T02:37:03.933Z,41.00
2023-04-15T02:39:33.999Z,41.00
2023-04-15T02:42:03.871Z,40.90
2023-04-15T02:44:33.660Z,41.00
2023-04-15T02:47:05.042Z,40.90
2023-04-15T02:49:33.049Z,41.00
2023-04-15T02:52:02.288Z,40.90
2023-04-15T02:54:32.232Z,40.90
2023-04-15T02:57:02.203Z,41.00
2023-04-15T02:59:31.141Z,40.90
2023-04-15T03:02:00.741Z,40.90
2023-04-15T03:04:29.859Z,40.90
2023-04-15T03:07:00.068Z,40.90
2023-04-15T03:09:30.370Z,41.00
2023-04-15T03:12:01.835Z,41.00
2023-04-15T03:14:31.745Z,41.00
2023-04-15T03:17:01.672Z,41.00
2023-04-15T03:19:32.046Z,40.90
2023-04-15T03:22:02.203Z,40.90
2023-04-15T03:24:30.683Z,41.00
2023-04-15T03:27:01.024Z,40.90
2023-04-15T03:29:31.111Z,41.00
2023-04-15T03:32:01.373Z,41.00
2023-04-15T03:34:34.280Z,41.00
2023-04-15T03:37:03.217Z,41.00
2023-04-15T03:39:33.501Z,41.00
2023-04-15T03:42:03.739Z,41.00
2023-04-15T03:44:34.071Z,41.00
2023-04-15T03:47:03.877Z,41.00
2023-04-15T03:49:33.246Z,41.10
2023-04-15T03:52:03.458Z,41.10
2023-04-15T03:54:31.699Z,41.70
2023-04-15T03:57:00.951Z,41.10
2023-04-15T03:59:30.886Z,41.10
2023-04-15T04:02:00.256Z,41.10
2023-04-15T04:04:30.716Z,41.10
2023-04-15T04:07:01.073Z,41.10
2023-04-15T04:09:31.475Z,41.10
2023-04-15T04:12:01.968Z,41.00
2023-04-15T04:14:32.072Z,41.10
2023-04-15T04:17:00.826Z,41.10
2023-04-15T04:19:30.593Z,41.10
2023-04-15T04:21:59.681Z,41.10
2023-04-15T04:24:32.051Z,41.00
2023-04-15T04:27:02.342Z,41.10
2023-04-15T04:29:32.274Z,41.10
2023-04-15T04:32:00.521Z,41.10
2023-04-15T04:34:29.857Z,41.10
2023-04-15T04:37:00.175Z,41.10
2023-04-15T04:39:30.527Z,41.20
2023-04-15T04:42:00.907Z,41.20
2023-04-15T04:44:31.294Z,41.10
2023-04-15T04:47:01.640Z,41.10
2023-04-15T04:49:31.901Z,41.10
2023-04-15T04:52:02.170Z,41.10
2023-04-15T04:54:32.063Z,41.20
2023-04-15T04:57:01.426Z,41.10
2023-04-15T04:59:31.748Z,41.10
2023-04-15T05:02:02.195Z,41.10
2023-04-15T05:04:32.140Z,41.00
2023-04-15T05:07:01.522Z,41.10
2023-04-15T05:09:31.332Z,41.10
2023-04-15T05:12:00.679Z,41.10
2023-04-15T05:14:31.110Z,41.10
2023-04-15T05:17:00.132Z,41.10
2023-04-15T05:19:28.938Z,41.10
2023-04-15T05:21:59.272Z,41.00
2023-04-15T05:24:29.508Z,41.10
2023-04-15T05:26:59.340Z,41.10
2023-04-15T05:29:28.830Z,41.10
2023-04-15T05:31:58.286Z,41.00
2023-04-15T05:34:28.622Z,41.10
2023-04-15T05:36:58.954Z,41.10
2023-04-15T05:39:28.959Z,41.00
2023-04-15T05:41:57.117Z,41.00
2023-04-15T05:44:25.924Z,40.90
2023-04-15T05:46:54.888Z,40.90
2023-04-15T05:49:25.650Z,40.80
2023-04-15T05:51:55.067Z,40.90
2023-04-15T05:54:25.507Z,40.70
2023-04-15T05:56:55.790Z,40.70
2023-04-15T05:59:26.105Z,40.80
2023-04-15T06:01:56.000Z,40.80
2023-04-15T06:04:27.250Z,40.70
2023-04-15T06:06:56.923Z,40.60
2023-04-15T06:09:26.409Z,40.60
2023-04-15T06:11:55.104Z,40.40
2023-04-15T06:14:25.341Z,40.50
2023-04-15T06:16:55.812Z,40.50
2023-04-15T06:19:24.710Z,40.30
2023-04-15T06:21:54.011Z,40.20
2023-04-15T06:24:24.312Z,40.20
2023-04-15T06:26:54.599Z,40.00
2023-04-15T06:29:24.910Z,40.00
2023-04-15T06:31:54.825Z,39.90
2023-04-15T06:34:23.787Z,39.80
2023-04-15T06:36:53.496Z,39.80
2023-04-15T06:39:23.802Z,39.80
2023-04-15T06:41:53.683Z,39.90
2023-04-15T06:44:22.739Z,39.80
2023-04-15T06:46:51.579Z,39.70
2023-04-15T06:49:20.349Z,39.70
2023-04-15T06:51:49.433Z,39.60
2023-04-15T06:54:18.183Z,39.50
2023-04-15T06:56:48.523Z,39.50
2023-04-15T06:59:18.960Z,39.40
2023-04-15T07:01:48.396Z,39.30
2023-04-15T07:04:18.731Z,39.30
2023-04-15T07:06:48.992Z,39.30
2023-04-15T07:09:19.208Z,39.30
2023-04-15T07:11:49.576Z,39.10
2023-04-15T07:14:19.587Z,39.10
2023-04-15T07:16:47.898Z,38.90
2023-04-15T07:19:17.296Z,38.60
2023-04-15T07:21:46.967Z,38.70
2023-04-15T07:24:14.872Z,38.70
2023-04-15T07:26:42.958Z,38.50
2023-04-15T07:29:11.614Z,38.40
2023-04-15T07:31:41.374Z,38.30
2023-04-15T07:34:10.809Z,38.00
2023-04-15T07:36:40.852Z,38.10
2023-04-15T07:39:09.402Z,38.00
2023-04-15T07:41:38.133Z,37.90
2023-04-15T07:44:08.120Z,37.80
2023-04-15T07:46:36.889Z,37.70
2023-04-15T07:49:06.450Z,37.60
2023-04-15T07:51:35.253Z,37.50
2023-04-15T07:54:04.109Z,37.40
2023-04-15T07:56:33.460Z,37.20
2023-04-15T07:59:03.953Z,36.90
2023-04-15T08:01:36.968Z,36.70
2023-04-15T08:04:07.453Z,36.60
2023-04-15T08:06:37.488Z,36.40
2023-04-15T08:09:06.610Z,36.20
2023-04-15T08:11:34.778Z,36.10
2023-04-15T08:14:03.628Z,36.00
2023-04-15T08:16:32.724Z,35.80
2023-04-15T08:19:02.418Z,35.60
2023-04-15T08:21:32.802Z,35.50
2023-04-15T08:24:03.098Z,35.70
2023-04-15T08:26:33.422Z,34.70
2023-04-15T08:29:03.983Z,34.40
2023-04-15T08:31:34.063Z,33.90
2023-04-15T08:34:04.559Z,33.70
2023-04-15T08:36:33.493Z,33.10
2023-04-15T08:39:03.119Z,32.50
2023-04-15T08:41:33.790Z,31.90
2023-04-15T08:44:03.666Z,31.40
2023-04-15T08:46:32.277Z,30.90
2023-04-15T08:49:00.940Z,30.80
2023-04-15T08:51:29.839Z,30.50
2023-04-15T08:53:59.900Z,30.60
2023-04-15T08:56:28.637Z,30.60
2023-04-15T08:58:59.059Z,30.80
2023-04-15T09:01:29.700Z,30.80
2023-04-15T09:04:00.187Z,30.90
2023-04-15T09:06:30.626Z,30.80
2023-04-15T09:09:00.890Z,30.70
2023-04-15T09:11:29.798Z,30.50
2023-04-15T09:13:59.826Z,30.00
2023-04-15T09:16:28.801Z,29.90
2023-04-15T09:19:01.420Z,29.80
2023-04-15T09:21:30.874Z,29.80
2023-04-15T09:24:01.643Z,29.80
2023-04-15T09:26:32.275Z,29.90
2023-04-15T09:29:02.590Z,30.00
2023-04-15T09:31:32.883Z,29.90
2023-04-15T09:34:03.429Z,29.80
2023-04-15T09:36:33.964Z,29.70
2023-04-15T09:39:03.920Z,29.50
2023-04-15T09:41:32.574Z,29.10
2023-04-15T09:44:02.651Z,28.60
2023-04-15T09:46:31.593Z,28.30
2023-04-15T09:49:01.493Z,28.10
2023-04-15T09:51:30.437Z,28.10
2023-04-15T09:54:01.120Z,28.00
2023-04-15T09:56:31.612Z,27.90
2023-04-15T09:59:02.024Z,27.70
2023-04-15T10:01:32.005Z,27.40
2023-04-15T10:04:01.052Z,27.20
2023-04-15T10:06:32.353Z,26.90
2023-04-15T10:09:02.496Z,26.50
2023-04-15T10:11:32.261Z,26.30
2023-04-15T10:14:02.738Z,26.40
2023-04-15T10:16:33.058Z,26.50
2023-04-15T10:19:04.374Z,26.90
2023-04-15T10:21:34.434Z,27.00
2023-04-15T10:24:02.423Z,27.10
2023-04-15T10:26:31.521Z,27.20
2023-04-15T10:29:00.840Z,27.20
2023-04-15T10:31:30.700Z,27.30
2023-04-15T10:34:00.427Z,27.50
2023-04-15T10:36:30.080Z,27.60
2023-04-15T10:38:58.887Z,27.60
2023-04-15T10:41:28.159Z,27.60
2023-04-15T10:43:58.440Z,28.00
2023-04-15T10:46:28.875Z,28.30
2023-04-15T10:48:59.249Z,28.40
2023-04-15T10:51:29.361Z,28.00
2023-04-15T10:54:01.353Z,27.50
2023-04-15T10:56:30.096Z,27.20
2023-04-15T10:59:00.389Z,26.90
2023-04-15T11:01:30.036Z,26.70
2023-04-15T11:03:58.481Z,26.90
2023-04-15T11:06:27.336Z,27.00
2023-04-15T11:08:57.643Z,26.90
2023-04-15T11:11:28.081Z,26.70
2023-04-15T11:13:57.474Z,27.00
2023-04-15T11:16:27.787Z,27.20
2023-04-15T11:18:57.804Z,27.50
2023-04-15T11:21:26.008Z,27.80
2023-04-15T11:23:54.558Z,27.80
2023-04-15T11:26:22.793Z,27.70
2023-04-15T11:28:56.143Z,28.00
2023-04-15T11:31:26.444Z,28.20
2023-04-15T11:33:56.292Z,28.20
2023-04-15T11:36:26.615Z,27.00
2023-04-15T11:38:56.902Z,26.70
2023-04-15T11:41:27.348Z,26.20
2023-04-15T11:43:56.224Z,25.80
2023-04-15T11:46:25.051Z,25.50
2023-04-15T11:48:54.386Z,25.40
2023-04-15T11:51:24.645Z,25.90
2023-04-15T11:53:54.605Z,25.80
2023-04-15T11:56:22.533Z,25.70
2023-04-15T11:58:50.905Z,26.30
2023-04-15T12:01:20.323Z,25.80
2023-04-15T12:03:53.323Z,25.00
2023-04-15T12:06:23.800Z,24.40
2023-04-15T12:08:54.161Z,24.00
2023-04-15T12:11:23.992Z,23.70
2023-04-15T12:13:53.152Z,23.60
2023-04-15T12:16:25.837Z,24.40
2023-04-15T12:18:55.235Z,24.90
2023-04-15T12:21:25.606Z,25.10
2023-04-15T12:23:55.901Z,24.90
2023-04-15T12:26:26.200Z,25.00
2023-04-15T12:28:56.512Z,25.60
2023-04-15T12:31:26.985Z,26.30
2023-04-15T12:33:57.461Z,26.10
2023-04-15T12:36:26.950Z,26.00
2023-04-15T12:38:57.385Z,25.60
2023-04-15T12:41:27.610Z,25.90
2023-04-15T12:43:57.925Z,25.30
2023-04-15T12:46:28.227Z,25.50
2023-04-15T12:48:58.430Z,25.70
2023-04-15T12:51:28.262Z,25.90
2023-04-15T12:53:57.118Z,25.90
2023-04-15T12:56:27.085Z,25.80
2023-04-15T12:58:57.156Z,26.30
2023-04-15T13:01:26.087Z,27.00
2023-04-15T13:03:55.226Z,27.40
2023-04-15T13:06:24.630Z,27.40
2023-04-15T13:08:58.453Z,27.80
2023-04-15T13:11:28.922Z,28.20
2023-04-15T13:13:58.750Z,28.60
2023-04-15T13:16:27.702Z,28.70
2023-04-15T13:18:57.066Z,28.90
2023-04-15T13:21:27.293Z,29.20
2023-04-15T13:23:57.625Z,29.10
2023-04-15T13:26:31.788Z,29.20
2023-04-15T13:29:02.466Z,29.20
2023-04-15T13:31:32.012Z,29.40
2023-04-15T13:34:02.527Z,29.60
2023-04-15T13:36:32.964Z,29.80
2023-04-15T13:39:02.793Z,30.00
2023-04-15T13:41:32.239Z,30.30
2023-04-15T13:44:02.868Z,30.20
2023-04-15T13:46:33.412Z,30.40
2023-04-15T13:49:03.281Z,30.70
2023-04-15T13:51:32.135Z,30.30
2023-04-15T13:54:01.266Z,30.40
2023-04-15T13:56:29.618Z,30.70
2023-04-15T13:59:01.848Z,30.70
2023-04-15T14:01:31.294Z,30.80
2023-04-15T14:04:01.462Z,31.20
2023-04-15T14:06:29.760Z,31.50
2023-04-15T14:08:58.388Z,31.60
2023-04-15T14:11:27.083Z,31.90
2023-04-15T14:13:57.514Z,32.10
2023-04-15T14:16:27.672Z,32.20
2023-04-15T14:18:56.376Z,32.50
2023-04-15T14:21:26.698Z,32.80
2023-04-15T14:23:56.550Z,32.90
2023-04-15T14:26:29.419Z,33.00
2023-04-15T14:28:58.758Z,33.20
2023-04-15T14:31:28.864Z,33.50
2023-04-15T14:33:57.533Z,33.70
2023-04-15T14:36:27.447Z,34.00
2023-04-15T14:38:55.793Z,34.30
2023-04-15T14:41:25.840Z,34.50
2023-04-15T14:43:54.578Z,34.80
2023-04-15T14:46:24.902Z,34.80
2023-04-15T14:48:55.352Z,34.90
2023-04-15T14:51:23.838Z,35.10
2023-04-15T14:53:53.198Z,35.30
2023-04-15T14:56:23.162Z,35.40
2023-04-15T14:58:51.529Z,35.50
2023-04-15T15:01:21.913Z,35.60
2023-04-15T15:03:52.426Z,35.70
2023-04-15T15:06:22.836Z,36.00
2023-04-15T15:08:53.158Z,36.10
2023-04-15T15:11:23.013Z,36.10
2023-04-15T15:13:52.112Z,36.20
2023-04-15T15:16:20.876Z,36.20
2023-04-15T15:18:50.725Z,37.10
2023-04-15T15:21:19.630Z,36.50
2023-04-15T15:23:48.913Z,36.50
2023-04-15T15:26:18.681Z,36.70
2023-04-15T15:28:47.628Z,36.70
2023-04-15T15:31:20.806Z,36.90
2023-04-15T15:33:51.183Z,37.00
2023-04-15T15:36:21.498Z,37.00
2023-04-15T15:38:51.954Z,37.20
2023-04-15T15:41:21.358Z,37.20
2023-04-15T15:43:51.783Z,37.10
2023-04-15T15:46:20.807Z,37.30
2023-04-15T15:48:50.889Z,37.30
2023-04-15T15:51:19.798Z,37.40
2023-04-15T15:53:49.343Z,37.30
2023-04-15T15:56:19.654Z,37.30
2023-04-15T15:58:49.921Z,37.60
2023-04-15T16:01:20.109Z,37.60
2023-04-15T16:03:49.231Z,37.60
2023-04-15T16:06:18.281Z,37.60
2023-04-15T16:08:48.578Z,37.70
2023-04-15T16:11:18.790Z,37.70
2023-04-15T16:13:49.176Z,38.00
2023-04-15T16:16:18.552Z,38.10
2023-04-15T16:18:48.424Z,38.10
2023-04-15T16:21:17.885Z,38.10
2023-04-15T16:23:47.423Z,38.30
2023-04-15T16:26:15.631Z,38.40
2023-04-15T16:28:44.212Z,38.60
2023-04-15T16:31:12.879Z,38.50
2023-04-15T16:33:43.182Z,38.70
2023-04-15T16:36:13.477Z,38.60
2023-04-15T16:38:43.400Z,38.50
2023-04-15T16:41:12.453Z,38.70
2023-04-15T16:43:41.193Z,38.70
2023-04-15T16:46:10.726Z,38.70
2023-04-15T16:48:46.104Z,38.80
2023-04-15T16:51:15.162Z,38.90
2023-04-15T16:53:43.435Z,38.80
2023-04-15T16:56:12.763Z,38.80
2023-04-15T16:58:43.003Z,38.90
2023-04-15T17:01:13.441Z,39.00
2023-04-15T17:03:43.961Z,39.00
2023-04-15T17:06:14.311Z,39.10
2023-04-15T17:08:44.720Z,39.00
2023-04-15T17:11:15.407Z,39.20
2023-04-15T17:13:45.008Z,39.40
2023-04-15T17:16:15.034Z,39.20
2023-04-15T17:18:47.192Z,39.40
2023-04-15T17:21:15.950Z,39.40
2023-04-15T17:23:45.533Z,39.50
2023-04-15T17:26:14.326Z,39.40
2023-04-15T17:28:44.275Z,39.50
2023-04-15T17:31:13.045Z,39.50
2023-04-15T17:34:02.180Z,39.60
2023-04-15T17:36:31.982Z,39.60
2023-04-15T17:39:01.873Z,39.60
2023-04-15T17:41:31.333Z,39.70
2023-04-15T17:44:01.673Z,39.70
2023-04-15T17:46:31.674Z,39.70
2023-04-15T17:49:04.981Z,39.70
2023-04-15T17:51:33.534Z,39.80
2023-04-15T17:54:08.267Z,40.50
2023-04-15T17:56:38.175Z,39.90
2023-04-15T17:59:07.077Z,39.80
2023-04-15T18:01:37.437Z,39.90
2023-04-15T18:04:08.237Z,40.00
2023-04-15T18:06:38.925Z,40.00
2023-04-15T18:09:12.135Z,40.10
2023-04-15T18:11:42.548Z,40.10
2023-04-15T18:14:15.709Z,40.10
2023-04-15T18:16:53.349Z,40.10
2023-04-15T18:19:22.728Z,40.10
2023-04-15T18:21:53.090Z,40.10
2023-04-15T18:24:23.364Z,40.20
2023-04-15T18:26:53.744Z,40.20
2023-04-15T18:29:23.520Z,40.20
2023-04-15T18:31:52.455Z,40.40
2023-04-15T18:34:21.555Z,40.20
2023-04-15T18:36:54.341Z,40.30
2023-04-15T18:39:24.138Z,40.30
2023-04-15T18:41:53.494Z,40.30
2023-04-15T18:44:22.898Z,40.50
2023-04-15T18:46:52.758Z,40.30
2023-04-15T18:49:21.645Z,40.40
2023-04-15T18:51:50.939Z,40.40
2023-04-15T18:54:21.111Z,40.50
2023-04-15T18:56:49.053Z,40.40
2023-04-15T18:59:28.824Z,40.50
2023-04-15T19:01:59.785Z,40.50
2023-04-15T19:04:30.477Z,40.50
2023-04-15T19:06:59.709Z,40.50
2023-04-15T19:09:28.476Z,40.50
2023-04-15T19:11:58.853Z,40.60
2023-04-15T19:14:29.180Z,40.50
2023-04-15T19:16:59.430Z,40.60
2023-04-15T19:19:28.394Z,40.90
2023-04-15T19:21:58.819Z,40.70
2023-04-15T19:24:30.152Z,40.60
2023-04-15T19:27:01.348Z,40.70
2023-04-15T19:29:31.161Z,40.70
2023-04-15T19:32:00.479Z,40.70
2023-04-15T19:34:30.438Z,40.70
2023-04-15T19:36:58.894Z,40.80
2023-04-15T19:39:27.178Z,40.70
2023-04-15T19:41:57.839Z,40.70
2023-04-15T19:44:26.463Z,40.70
2023-04-15T19:46:55.398Z,40.80
2023-04-15T19:49:24.858Z,40.80
2023-04-15T19:51:55.107Z,40.80
2023-04-15T19:54:25.396Z,40.80
2023-04-15T19:56:55.388Z,40.90
2023-04-15T19:59:23.879Z,40.90
2023-04-15T20:01:52.840Z,40.90
2023-04-15T20:04:23.108Z,40.90
2023-04-15T20:06:51.646Z,41.00
2023-04-15T20:09:20.418Z,41.00
2023-04-15T20:12:45.580Z,41.50
2023-04-15T20:14:39.660Z,40.90
2023-04-15T20:17:10.018Z,41.00
2023-04-15T20:19:40.320Z,41.00
2023-04-15T20:22:10.662Z,41.00
2023-04-15T20:24:40.231Z,41.00
2023-04-15T20:27:08.424Z,41.00
2023-04-15T20:29:37.063Z,41.00
2023-04-15T20:32:05.509Z,41.00
2023-04-15T20:34:34.213Z,41.00
2023-04-15T20:37:04.564Z,41.00
2023-04-15T20:39:34.945Z,41.00
2023-04-15T20:42:05.367Z,41.10
2023-04-15T20:44:34.511Z,41.10
2023-04-15T20:47:03.348Z,41.10
2023-04-15T20:49:33.266Z,41.10
2023-04-15T20:52:02.552Z,41.10
2023-04-15T20:54:32.365Z,41.10
2023-04-15T20:57:02.470Z,41.20
2023-04-15T20:59:31.234Z,41.20
2023-04-15T21:02:01.632Z,41.20
2023-04-15T21:04:32.015Z,41.20
2023-04-15T21:07:02.383Z,41.20
2023-04-15T21:09:32.401Z,41.20
2023-04-15T21:12:02.185Z,41.30
2023-04-15T21:14:32.814Z,41.20
2023-04-15T21:17:03.173Z,41.30
2023-04-15T21:19:33.373Z,41.30
2023-04-15T21:22:03.672Z,41.30
2023-04-15T21:24:34.077Z,41.30
2023-04-15T21:27:03.935Z,41.40
2023-04-15T21:29:32.912Z,41.40
2023-04-15T21:32:01.970Z,41.40
2023-04-15T21:34:31.471Z,41.40
2023-04-15T21:37:01.904Z,41.40
2023-04-15T21:39:30.959Z,41.40
2023-04-15T21:41:59.270Z,41.40
2023-04-15T21:44:29.542Z,42.00
2023-04-15T21:46:59.889Z,41.50
2023-04-15T21:49:29.170Z,41.40
2023-04-15T21:51:57.952Z,41.50
2023-04-15T21:54:28.313Z,41.50
2023-04-15T21:56:58.596Z,41.50
2023-04-15T21:59:28.892Z,41.50
2023-04-15T22:01:59.341Z,41.50
2023-04-15T22:04:29.340Z,41.50
2023-04-15T22:06:58.680Z,41.50
2023-04-15T22:09:28.997Z,41.50
2023-04-15T22:11:59.291Z,41.60
2023-04-15T22:14:29.721Z,41.60
2023-04-15T22:17:00.158Z,41.60
2023-04-15T22:19:30.095Z,41.60
2023-04-15T22:22:02.532Z,41.60
2023-04-15T22:24:39.076Z,41.60
2023-04-15T22:27:08.224Z,41.70
2023-04-15T22:29:36.941Z,41.60
2023-04-15T22:32:07.281Z,41.70
2023-04-15T22:34:37.582Z,41.70
2023-04-15T22:37:07.420Z,41.70
2023-04-15T22:39:37.401Z,41.70
2023-04-15T22:42:06.826Z,41.70
2023-04-15T22:44:36.676Z,41.70
2023-04-15T22:47:06.002Z,41.70
2023-04-15T22:49:36.257Z,41.80
2023-04-15T22:52:06.093Z,41.80
2023-04-15T22:54:35.425Z,41.80
2023-04-15T22:57:05.764Z,41.80
2023-04-15T22:59:35.970Z,41.80
2023-04-15T23:02:04.871Z,41.80
2023-04-15T23:04:35.163Z,41.90
2023-04-15T23:07:04.029Z,41.90
2023-04-15T23:09:34.337Z,41.90
2023-04-15T23:12:04.649Z,41.90
2023-04-15T23:14:34.575Z,42.00
2023-04-15T23:17:03.706Z,41.90
2023-04-15T23:19:33.503Z,41.90
2023-04-15T23:22:02.813Z,42.00
2023-04-15T23:24:33.272Z,42.00
2023-04-15T23:27:02.684Z,42.00
2023-04-15T23:29:33.039Z,42.10
2023-04-15T23:32:02.804Z,42.00
2023-04-15T23:34:31.627Z,42.00
2023-04-15T23:37:01.260Z,42.10
2023-04-15T23:39:29.646Z,42.00
2023-04-15T23:41:58.276Z,42.10
2023-04-15T23:44:28.166Z,42.00
2023-04-15T23:46:57.552Z,42.10
2023-04-15T23:49:27.414Z,42.10
2023-04-15T23:51:56.748Z,42.10
2023-04-15T23:54:26.983Z,42.10
2023-04-15T23:56:57.248Z,42.10
2023-04-15T23:59:26.816Z,42.10
